OIAG  Aghajari Airport

Add Bookmark

Iran

Status
Operational
Latitude Longitude
30° 44' 39" N 49° 40' 37" E
30.744400 49.677200
Local (DST + 5) UTC (GMT + 4)
Dec 21, 2014 12:59 Dec 20, 2014 21:29
Sunrise-Sunset Local UTC
Begin Civil Twilight 06:36 03:06
Sunrise 07:03 03:33
Sunset 05:15 13:45
End Civil Twilight 05:42 14:12

Current Weather

METAR Observed VFR
OIAG 202000Z 15008KT CAVOK 14/10 Q1017 Sat, Dec 20, 2014 @ 20:00 UTC
(1 Hour, 29 Minutes ago)
Visual Flight Rules
Wind Visibility Clouds Conditions
150° at 8 knots (15 kph) 10 km or more
  • Clear skies
  • No significant weather
Temperatures Readings Precipitation
Current Temp 14°C (57°F)
Dewpoint 10°C (50°F)
Humidity 77%
Altimeter 30.03"Hg
Sea Level Pressure 1017mb
Field Elevation 95.14'
None Recorded

Additional weather within a 92.6km radius of OIAG

Map ICAO Location
OIAM 54.4km W (248°)

24 Hour Weather History

Loading
-

24 Hour Weather Graphs

Loading
-

CheckWX.com is intended as a tool to help pilots better visualize weather data. It is not intended as a substitute for an official weather briefing obtained from a Flight Service Station. CheckWX.com does not meet the FAA requirements for an official pre-flight weather briefing. Therefore, it's important that pilots still call and obtain an official FSS pre-flight weather briefing.